Time;durP1;ratioP1;P1;durP2;ratioP2;P2;SDS_P1;SDS_P2;PMS_P1;PMS_P2;Temp;Humidity;BMP_temperature;BMP_pressure;BME280_temperature;BME280_humidity;BME280_pressure;Samples;Min_cycle;Max_cycle;Signal;HPM_P1;HPM_P2
2020/12/22 00:01:51;;;;;;;57.15;29.20;;;;;;;;;;5094551;28;20121;-69
2020/12/22 00:04:18;;;;;;;37.17;21.60;;;;;;;;;;5094301;28;20063;-69
2020/12/22 00:06:44;;;;;;;44.20;24.10;;;;;;;;;;5096130;28;20022;-69
2020/12/22 00:09:10;;;;;;;44.08;22.58;;;;;;;;;;5095541;28;20403;-69
2020/12/22 00:11:36;;;;;;;70.45;36.30;;;;;;;;;;5095897;28;20073;-69
2020/12/22 00:14:02;;;;;;;43.60;23.75;;;;;;;;;;5096094;28;20062;-69
2020/12/22 00:16:36;;;;;;;38.33;21.05;;;;;;;;;;5095665;28;20112;-69
2020/12/22 00:19:02;;;;;;;82.28;40.15;;;;;;;;;;5096167;28;20008;-70
2020/12/22 00:21:29;;;;;;;41.20;21.98;;;;;;;;;;5095506;28;20074;-71
2020/12/22 00:23:55;;;;;;;39.85;22.95;;;;;;;;;;5095221;28;20433;-70
2020/12/22 00:26:21;;;;;;;38.63;21.98;;;;;;;;;;5094537;28;20122;-69
2020/12/22 00:28:47;;;;;;;40.15;22.58;;;;;;;;;;5094172;28;20016;-69
2020/12/22 00:31:14;;;;;;;48.45;28.13;;;;;;;;;;5094431;28;20023;-69
2020/12/22 00:33:40;;;;;;;59.33;31.05;;;;;;;;;;5095816;28;20453;-69
2020/12/22 00:36:07;;;;;;;33.97;20.45;;;;;;;;;;5094979;28;20411;-69
2020/12/22 00:38:33;;;;;;;48.35;27.15;;;;;;;;;;5095003;28;20024;-69
2020/12/22 00:40:59;;;;;;;46.13;24.48;;;;;;;;;;5095705;28;20016;-70
2020/12/22 00:43:25;;;;;;;78.20;41.72;;;;;;;;;;5093327;28;20028;-70
2020/12/22 00:45:51;;;;;;;48.47;25.73;;;;;;;;;;5095391;28;20471;-70
2020/12/22 00:48:17;;;;;;;43.00;22.48;;;;;;;;;;5094094;28;20016;-70
2020/12/22 00:50:43;;;;;;;44.10;24.15;;;;;;;;;;5093765;28;20020;-69
2020/12/22 00:53:10;;;;;;;44.70;25.10;;;;;;;;;;5094005;28;20024;-70
2020/12/22 00:55:36;;;;;;;49.30;29.17;;;;;;;;;;5095189;28;20038;-70
2020/12/22 00:58:02;;;;;;;42.70;23.15;;;;;;;;;;5094749;28;20051;-69
2020/12/22 01:00:28;;;;;;;40.45;22.15;;;;;;;;;;5095231;28;20517;-69
2020/12/22 01:02:54;;;;;;;51.60;28.17;;;;;;;;;;5093669;28;20453;-69
2020/12/22 01:05:20;;;;;;;38.38;22.70;;;;;;;;;;5094710;28;20024;-69
2020/12/22 01:07:49;;;;;;;38.90;22.92;;;;;;;;;;5093691;28;20070;-69
2020/12/22 01:10:15;;;;;;;39.83;23.13;;;;;;;;;;5094562;28;20023;-69
2020/12/22 01:12:43;;;;;;;40.08;21.33;;;;;;;;;;5094895;28;20020;-69
2020/12/22 01:15:09;;;;;;;44.67;25.38;;;;;;;;;;5093548;28;20066;-69
2020/12/22 01:17:35;;;;;;;52.97;26.83;;;;;;;;;;5093174;28;20017;-69
2020/12/22 01:20:01;;;;;;;49.78;28.50;;;;;;;;;;5094279;28;20361;-69
2020/12/22 01:22:27;;;;;;;61.58;30.42;;;;;;;;;;5093090;28;20408;-69
2020/12/22 01:24:53;;;;;;;39.83;21.13;;;;;;;;;;5094399;28;20027;-69
2020/12/22 01:27:19;;;;;;;52.13;27.80;;;;;;;;;;5094662;28;20012;-69
2020/12/22 01:29:46;;;;;;;48.85;25.10;;;;;;;;;;5094594;28;20031;-69
2020/12/22 01:32:12;;;;;;;62.78;32.97;;;;;;;;;;5094515;28;20027;-69
2020/12/22 01:34:38;;;;;;;44.83;24.02;;;;;;;;;;5093002;28;20023;-69
2020/12/22 01:37:04;;;;;;;41.72;21.98;;;;;;;;;;5093209;28;20411;-69
2020/12/22 01:39:30;;;;;;;45.65;24.58;;;;;;;;;;5094221;28;20020;-69
2020/12/22 01:41:56;;;;;;;42.95;22.83;;;;;;;;;;5094295;28;20053;-69
2020/12/22 01:44:22;;;;;;;39.20;21.70;;;;;;;;;;5093074;28;20028;-69
2020/12/22 01:46:49;;;;;;;48.17;26.73;;;;;;;;;;5092919;28;20506;-69
2020/12/22 01:49:25;;;;;;;41.95;23.23;;;;;;;;;;5094340;28;20065;-69
2020/12/22 01:51:55;;;;;;;45.60;25.05;;;;;;;;;;5092942;28;20024;-69
2020/12/22 01:54:21;;;;;;;42.53;21.48;;;;;;;;;;5093925;28;20023;-69
2020/12/22 01:56:47;;;;;;;48.63;24.85;;;;;;;;;;5093906;28;20069;-69
2020/12/22 01:59:14;;;;;;;56.03;27.13;;;;;;;;;;5092471;28;20083;-69
2020/12/22 02:01:40;;;;;;;49.15;24.67;;;;;;;;;;5092768;28;20072;-69
2020/12/22 02:04:07;;;;;;;89.15;41.83;;;;;;;;;;5094353;28;20094;-69
2020/12/22 02:06:34;;;;;;;49.70;23.65;;;;;;;;;;5093769;28;20020;-69
2020/12/22 02:09:01;;;;;;;49.90;26.10;;;;;;;;;;5093793;28;20361;-69
2020/12/22 02:11:31;;;;;;;65.47;30.77;;;;;;;;;;5093713;28;20024;-69
2020/12/22 02:13:58;;;;;;;42.85;21.20;;;;;;;;;;5093460;28;20050;-69
2020/12/22 02:16:24;;;;;;;47.87;26.07;;;;;;;;;;5092528;28;20020;-69
2020/12/22 02:18:51;;;;;;;101.22;42.90;;;;;;;;;;5093930;28;20237;-69
2020/12/22 02:21:18;;;;;;;49.88;23.58;;;;;;;;;;5093546;28;20107;-69
2020/12/22 02:23:44;;;;;;;47.80;24.23;;;;;;;;;;5093726;28;20487;-69
2020/12/22 02:26:11;;;;;;;36.75;20.33;;;;;;;;;;5092657;28;20012;-68
2020/12/22 02:28:37;;;;;;;39.85;20.55;;;;;;;;;;5091998;28;20031;-69
2020/12/22 02:31:03;;;;;;;43.45;21.73;;;;;;;;;;5094474;28;20020;-69
2020/12/22 02:33:30;;;;;;;78.23;37.17;;;;;;;;;;5096727;28;20020;-70
2020/12/22 02:35:56;;;;;;;43.03;22.92;;;;;;;;;;5097354;28;20020;-69
2020/12/22 02:38:22;;;;;;;49.95;26.98;;;;;;;;;;5096227;28;20368;-69
2020/12/22 02:40:49;;;;;;;47.75;25.20;;;;;;;;;;5097661;28;20020;-69
2020/12/22 02:43:15;;;;;;;40.90;21.30;;;;;;;;;;5096108;28;20123;-69
2020/12/22 02:45:42;;;;;;;39.22;21.52;;;;;;;;;;5096438;28;20019;-69
2020/12/22 02:48:11;;;;;;;47.22;22.52;;;;;;;;;;5097700;28;20016;-70
2020/12/22 02:50:37;;;;;;;55.22;27.35;;;;;;;;;;5097074;28;20023;-70
2020/12/22 02:53:04;;;;;;;38.80;20.25;;;;;;;;;;5097803;28;20118;-70
2020/12/22 02:55:30;;;;;;;34.60;18.73;;;;;;;;;;5095970;28;20024;-70
2020/12/22 02:57:56;;;;;;;30.52;17.05;;;;;;;;;;5097528;28;20093;-70
2020/12/22 03:00:23;;;;;;;30.80;16.70;;;;;;;;;;5097467;28;20012;-70
2020/12/22 03:02:49;;;;;;;30.52;17.50;;;;;;;;;;5096162;28;20035;-70
2020/12/22 03:05:15;;;;;;;30.88;16.95;;;;;;;;;;5097053;28;20020;-70
2020/12/22 03:07:42;;;;;;;39.20;20.60;;;;;;;;;;5097384;28;20129;-71
2020/12/22 03:10:08;;;;;;;29.13;16.98;;;;;;;;;;5096943;28;20012;-70
2020/12/22 03:12:35;;;;;;;28.52;18.33;;;;;;;;;;5097269;28;20387;-70
2020/12/22 03:15:02;;;;;;;36.85;20.45;;;;;;;;;;5096061;28;20020;-70
2020/12/22 03:17:28;;;;;;;43.33;23.05;;;;;;;;;;5096541;28;20087;-70
2020/12/22 03:19:54;;;;;;;144.32;65.43;;;;;;;;;;5096335;28;20012;-70
2020/12/22 03:22:20;;;;;;;182.90;102.07;;;;;;;;;;5096305;28;20028;-71
2020/12/22 03:24:47;;;;;;;56.85;35.33;;;;;;;;;;5095575;28;20357;-69
2020/12/22 03:27:13;;;;;;;44.28;23.92;;;;;;;;;;5096055;28;20414;-70
2020/12/22 03:29:39;;;;;;;38.13;20.33;;;;;;;;;;5097097;28;20083;-70
2020/12/22 03:32:05;;;;;;;85.88;40.40;;;;;;;;;;5095361;28;20020;-70
2020/12/22 03:34:31;;;;;;;70.60;32.35;;;;;;;;;;5096977;28;20031;-70
2020/12/22 03:36:58;;;;;;;53.42;25.38;;;;;;;;;;5096567;28;20020;-70
2020/12/22 03:39:24;;;;;;;52.65;24.75;;;;;;;;;;5095253;28;20047;-70
2020/12/22 03:41:50;;;;;;;58.33;27.23;;;;;;;;;;5095232;28;20024;-69
2020/12/22 03:44:16;;;;;;;57.00;30.92;;;;;;;;;;5095356;28;20073;-70
2020/12/22 03:46:48;;;;;;;70.70;31.92;;;;;;;;;;5095251;28;20573;-70
2020/12/22 03:49:14;;;;;;;125.25;47.45;;;;;;;;;;5096015;28;20536;-70
2020/12/22 03:51:40;;;;;;;66.45;28.08;;;;;;;;;;5094349;28;20024;-70
2020/12/22 03:54:07;;;;;;;80.00;33.33;;;;;;;;;;5096208;28;20069;-70
2020/12/22 03:56:33;;;;;;;68.45;31.05;;;;;;;;;;5096516;28;20043;-70
2020/12/22 03:58:59;;;;;;;68.82;31.30;;;;;;;;;;5096191;28;20008;-70
2020/12/22 04:01:25;;;;;;;52.90;27.10;;;;;;;;;;5094413;28;20111;-70
2020/12/22 04:03:51;;;;;;;56.60;28.75;;;;;;;;;;5094981;28;20170;-70
2020/12/22 04:06:17;;;;;;;69.80;31.88;;;;;;;;;;5095947;28;20016;-70
2020/12/22 04:08:43;;;;;;;78.05;33.13;;;;;;;;;;5094552;28;20023;-70
2020/12/22 04:11:09;;;;;;;86.10;36.90;;;;;;;;;;5094806;28;20475;-70
2020/12/22 04:13:36;;;;;;;58.10;26.88;;;;;;;;;;5094114;28;20023;-70
2020/12/22 04:16:05;;;;;;;66.75;31.52;;;;;;;;;;5095985;28;20019;-70
2020/12/22 04:18:32;;;;;;;42.08;22.77;;;;;;;;;;5095830;28;20044;-70
2020/12/22 04:20:58;;;;;;;56.28;26.77;;;;;;;;;;5095392;28;20021;-70
2020/12/22 04:23:25;;;;;;;43.25;23.08;;;;;;;;;;5095532;28;20052;-70
2020/12/22 04:25:52;;;;;;;68.40;40.35;;;;;;;;;;5095979;28;20020;-70
2020/12/22 04:28:18;;;;;;;84.15;51.83;;;;;;;;;;5095177;28;20044;-70
2020/12/22 04:30:45;;;;;;;52.50;33.67;;;;;;;;;;5095273;28;20074;-70
2020/12/22 04:33:11;;;;;;;47.80;27.37;;;;;;;;;;5095711;28;20401;-70
2020/12/22 04:35:38;;;;;;;52.53;30.03;;;;;;;;;;5094784;28;20016;-70
2020/12/22 04:38:04;;;;;;;42.45;23.58;;;;;;;;;;5094037;28;20046;-70
2020/12/22 04:40:31;;;;;;;42.70;20.08;;;;;;;;;;5093652;28;20020;-70
2020/12/22 04:42:58;;;;;;;38.33;20.02;;;;;;;;;;5094119;28;20031;-70
2020/12/22 04:45:26;;;;;;;28.95;15.90;;;;;;;;;;5095470;28;20024;-70
2020/12/22 04:47:52;;;;;;;30.08;16.23;;;;;;;;;;5095155;28;20008;-70
2020/12/22 04:50:18;;;;;;;27.05;16.52;;;;;;;;;;5094058;28;20073;-70
2020/12/22 04:52:44;;;;;;;29.83;16.25;;;;;;;;;;5095248;28;20031;-70
2020/12/22 04:55:11;;;;;;;27.27;15.52;;;;;;;;;;5092672;28;20102;-70
2020/12/22 04:57:37;;;;;;;31.88;17.92;;;;;;;;;;5093916;28;20016;-70
2020/12/22 05:00:05;;;;;;;35.90;18.77;;;;;;;;;;5093591;28;20028;-70
2020/12/22 05:02:37;;;;;;;39.85;19.23;;;;;;;;;;5093390;28;20024;-69
2020/12/22 05:05:03;;;;;;;36.60;17.17;;;;;;;;;;5095103;28;20028;-70
2020/12/22 05:07:29;;;;;;;30.58;16.73;;;;;;;;;;5094500;28;20081;-70
2020/12/22 05:09:56;;;;;;;26.95;15.73;;;;;;;;;;5093461;28;20012;-70
2020/12/22 05:12:22;;;;;;;32.15;17.77;;;;;;;;;;5093481;28;20020;-70
2020/12/22 05:14:48;;;;;;;33.78;13.73;;;;;;;;;;5094584;28;20453;-71
2020/12/22 05:17:14;;;;;;;56.15;27.55;;;;;;;;;;5092832;28;20031;-70
2020/12/22 05:19:42;;;;;;;32.58;18.65;;;;;;;;;;5094573;28;20035;-70
2020/12/22 05:22:08;;;;;;;;;;;;;;;;;;5092972;28;20035;-71
2020/12/22 05:24:36;;;;;;;36.30;20.05;;;;;;;;;;5092507;28;19925;-70
2020/12/22 05:27:03;;;;;;;34.97;20.15;;;;;;;;;;5093483;28;20171;-70
2020/12/22 05:29:29;;;;;;;35.60;21.77;;;;;;;;;;5093711;28;20023;-70
2020/12/22 05:31:55;;;;;;;45.58;26.42;;;;;;;;;;5092568;28;20024;-70
2020/12/22 05:34:24;;;;;;;54.42;29.50;;;;;;;;;;5093820;28;20095;-70
2020/12/22 05:36:50;;;;;;;66.05;38.78;;;;;;;;;;5092880;28;20020;-70
2020/12/22 05:39:18;;;;;;;58.38;28.98;;;;;;;;;;5093817;28;20016;-71
2020/12/22 05:41:43;;;;;;;;;;;;;;;;;;5094176;28;20484;-70
2020/12/22 05:44:10;;;;;;;43.08;20.58;;;;;;;;;;5094120;28;19904;-70
2020/12/22 05:46:37;;;;;;;33.40;18.95;;;;;;;;;;5094218;28;20476;-71
2020/12/22 05:49:07;;;;;;;45.13;19.45;;;;;;;;;;5093018;28;20028;-70
2020/12/22 05:51:33;;;;;;;32.80;16.40;;;;;;;;;;5093661;28;20028;-70
2020/12/22 05:54:06;;;;;;;38.75;19.45;;;;;;;;;;5092937;28;20457;-70
2020/12/22 05:56:33;;;;;;;35.80;18.58;;;;;;;;;;5093942;28;20020;-70
2020/12/22 05:58:59;;;;;;;33.13;19.85;;;;;;;;;;5093726;28;20098;-70
2020/12/22 06:01:33;;;;;;;53.00;25.13;;;;;;;;;;5092823;28;20028;-70
2020/12/22 06:04:02;;;;;;;36.35;18.42;;;;;;;;;;5094113;28;20054;-70
2020/12/22 06:06:29;;;;;;;50.70;23.30;;;;;;;;;;5093548;28;20417;-70
2020/12/22 06:08:56;;;;;;;55.90;29.25;;;;;;;;;;5094304;28;20028;-70
2020/12/22 06:11:22;;;;;;;60.75;34.97;;;;;;;;;;5092508;28;20426;-70
2020/12/22 06:13:49;;;;;;;140.05;92.28;;;;;;;;;;5092763;28;20023;-70
2020/12/22 06:16:16;;;;;;;75.03;39.30;;;;;;;;;;5092692;28;20016;-70
2020/12/22 06:18:42;;;;;;;;;;;;;;;;;;5092795;28;20023;-70
2020/12/22 06:21:09;;;;;;;55.75;36.28;;;;;;;;;;5092635;28;20256;-71
2020/12/22 06:23:35;;;;;;;49.83;31.70;;;;;;;;;;5093963;28;20044;-70
2020/12/22 06:26:05;;;;;;;41.78;22.38;;;;;;;;;;5092312;28;20016;-70
2020/12/22 06:28:31;;;;;;;41.63;22.50;;;;;;;;;;5093817;28;20357;-72
2020/12/22 06:30:57;;;;;;;68.30;34.05;;;;;;;;;;5092544;28;20023;-70
2020/12/22 06:33:24;;;;;;;47.50;24.60;;;;;;;;;;5091876;28;20426;-72
2020/12/22 06:36:00;;;;;;;39.90;23.83;;;;;;;;;;5092787;28;20357;-68
2020/12/22 06:38:43;;;;;;;47.20;25.00;;;;;;;;;;5092417;28;20380;-70
2020/12/22 06:41:09;;;;;;;58.80;34.50;;;;;;;;;;5092950;28;20035;-71
2020/12/22 06:43:42;;;;;;;66.03;33.75;;;;;;;;;;5092452;28;20031;-70
2020/12/22 06:46:31;;;;;;;64.93;32.17;;;;;;;;;;5093927;28;20031;-71
2020/12/22 06:48:57;;;;;;;70.38;32.75;;;;;;;;;;5092336;28;20016;-70
2020/12/22 06:51:27;;;;;;;71.63;35.20;;;;;;;;;;5092348;28;20020;-71
2020/12/22 06:53:53;;;;;;;58.92;32.15;;;;;;;;;;5092366;28;20122;-71
2020/12/22 06:56:58;;;;;;;53.75;25.73;;;;;;;;;;5092331;28;20107;-68
2020/12/22 06:59:42;;;;;;;58.20;30.45;;;;;;;;;;5070777;28;20035;-70
2020/12/22 07:02:41;;;;;;;76.38;38.65;;;;;;;;;;5054736;28;20171;-70
2020/12/22 07:05:07;;;;;;;80.75;35.75;;;;;;;;;;5044368;28;20114;-67
2020/12/22 07:07:52;;;;;;;72.38;31.35;;;;;;;;;;5092228;28;20024;-71
2020/12/22 07:10:18;;;;;;;75.40;39.30;;;;;;;;;;5092944;28;20053;-73
2020/12/22 07:12:44;;;;;;;67.50;32.90;;;;;;;;;;5091900;28;20457;-72
2020/12/22 07:15:10;;;;;;;83.20;40.50;;;;;;;;;;5092075;28;20016;-71
2020/12/22 07:17:37;;;;;;;81.07;42.38;;;;;;;;;;5091891;28;20023;-75
2020/12/22 07:20:03;;;;;;;73.57;38.78;;;;;;;;;;5095471;28;20020;-74
2020/12/22 07:22:30;;;;;;;92.22;51.53;;;;;;;;;;5095589;28;20146;-74
2020/12/22 07:24:57;;;;;;;87.50;45.67;;;;;;;;;;5095049;28;20040;-72
2020/12/22 07:27:23;;;;;;;69.68;38.38;;;;;;;;;;5095725;28;20134;-73
2020/12/22 07:29:49;;;;;;;72.65;35.88;;;;;;;;;;5095787;28;20099;-73
2020/12/22 07:32:17;;;;;;;73.38;36.63;;;;;;;;;;5095597;28;20108;-75
2020/12/22 07:34:43;;;;;;;64.75;33.40;;;;;;;;;;5097736;28;20023;-72
2020/12/22 07:37:10;;;;;;;76.18;36.67;;;;;;;;;;5097072;28;20473;-72
2020/12/22 07:39:37;;;;;;;76.07;37.25;;;;;;;;;;5097058;28;20023;-76
2020/12/22 07:42:09;;;;;;;86.57;42.95;;;;;;;;;;5095700;28;20508;-71
2020/12/22 07:44:35;;;;;;;67.25;36.05;;;;;;;;;;5095806;28;20030;-76
2020/12/22 07:47:02;;;;;;;73.45;38.55;;;;;;;;;;5095499;28;20028;-70
2020/12/22 07:49:28;;;;;;;68.90;39.35;;;;;;;;;;5095342;28;20120;-70
2020/12/22 07:51:54;;;;;;;63.25;32.28;;;;;;;;;;5094855;28;20027;-70
2020/12/22 07:54:20;;;;;;;72.05;40.95;;;;;;;;;;5094655;28;20027;-72
2020/12/22 07:56:46;;;;;;;70.32;39.42;;;;;;;;;;5094836;28;20027;-72
2020/12/22 07:59:17;;;;;;;84.05;44.63;;;;;;;;;;5095068;28;20016;-70
2020/12/22 08:01:44;;;;;;;68.50;37.97;;;;;;;;;;5094738;28;20042;-69
2020/12/22 08:04:15;;;;;;;72.82;39.92;;;;;;;;;;5089235;28;20104;-70
2020/12/22 08:06:41;;;;;;;64.72;33.25;;;;;;;;;;5095729;28;20091;-72
2020/12/22 08:09:08;;;;;;;84.07;45.63;;;;;;;;;;5075207;28;20027;-72
2020/12/22 08:11:35;;;;;;;61.33;30.70;;;;;;;;;;5077582;28;20028;-71
2020/12/22 08:14:02;;;;;;;62.47;28.17;;;;;;;;;;5094064;28;20508;-70
2020/12/22 08:16:29;;;;;;;75.90;38.92;;;;;;;;;;5095833;28;20111;-72
2020/12/22 08:18:55;;;;;;;91.75;37.45;;;;;;;;;;5095513;28;20016;-72
2020/12/22 08:21:22;;;;;;;89.82;39.22;;;;;;;;;;5096005;28;20326;-69
2020/12/22 08:23:49;;;;;;;65.93;29.30;;;;;;;;;;5094245;28;20093;-72
2020/12/22 08:26:18;;;;;;;61.45;28.92;;;;;;;;;;5094191;28;20073;-71
2020/12/22 08:28:51;;;;;;;72.32;31.00;;;;;;;;;;5093943;28;20506;-71
2020/12/22 08:31:20;;;;;;;68.38;32.92;;;;;;;;;;5095403;28;20069;-69
2020/12/22 08:33:51;;;;;;;55.40;29.77;;;;;;;;;;5094511;28;20020;-70
2020/12/22 08:36:19;;;;;;;51.80;28.13;;;;;;;;;;5094244;28;20016;-70
2020/12/22 08:38:45;;;;;;;51.92;28.02;;;;;;;;;;5094267;28;20368;-72
2020/12/22 08:41:15;;;;;;;41.38;22.10;;;;;;;;;;5095356;28;20016;-69
2020/12/22 08:43:54;;;;;;;44.75;24.67;;;;;;;;;;5095143;28;20027;-72
2020/12/22 08:46:21;;;;;;;50.17;28.42;;;;;;;;;;5093675;28;20019;-71
2020/12/22 08:48:47;;;;;;;57.33;28.58;;;;;;;;;;5093437;28;20016;-71
2020/12/22 08:51:26;;;;;;;64.57;31.42;;;;;;;;;;5093533;28;20025;-70
2020/12/22 08:53:56;;;;;;;46.65;25.90;;;;;;;;;;5109338;28;20066;-72
2020/12/22 08:56:24;;;;;;;42.75;23.17;;;;;;;;;;5090737;28;20012;-70
2020/12/22 08:58:54;;;;;;;57.03;29.27;;;;;;;;;;5093733;28;20479;-70
2020/12/22 09:01:24;;;;;;;68.13;30.77;;;;;;;;;;5092106;28;20043;-72
2020/12/22 09:03:52;;;;;;;60.60;30.40;;;;;;;;;;5092359;28;20024;-71
2020/12/22 09:06:18;;;;;;;55.47;30.33;;;;;;;;;;5093701;28;20070;-71
2020/12/22 09:08:46;;;;;;;54.83;28.07;;;;;;;;;;5091751;28;20040;-68
2020/12/22 09:11:21;;;;;;;59.83;31.38;;;;;;;;;;5093029;28;20020;-69
2020/12/22 09:13:57;;;;;;;46.60;24.85;;;;;;;;;;5093940;28;20026;-71
2020/12/22 09:16:23;;;;;;;59.58;33.60;;;;;;;;;;5094864;28;20024;-70
2020/12/22 09:19:03;;;;;;;41.15;22.95;;;;;;;;;;5092192;28;20020;-70
2020/12/22 09:21:29;;;;;;;51.70;29.52;;;;;;;;;;5092926;28;20027;-70
2020/12/22 09:23:55;;;;;;;50.75;29.38;;;;;;;;;;5092841;28;20040;-70
2020/12/22 09:26:21;;;;;;;117.00;66.65;;;;;;;;;;5094054;28;20055;-70
2020/12/22 09:28:48;;;;;;;54.38;30.75;;;;;;;;;;5093028;28;20016;-71
2020/12/22 09:31:22;;;;;;;53.92;34.10;;;;;;;;;;5093521;28;20372;-70
2020/12/22 09:33:48;;;;;;;65.20;35.92;;;;;;;;;;5093161;28;20467;-70
2020/12/22 09:36:14;;;;;;;84.20;47.30;;;;;;;;;;5094763;28;20024;-70
2020/12/22 09:38:40;;;;;;;77.82;41.85;;;;;;;;;;5092917;28;20100;-70
2020/12/22 09:41:06;;;;;;;120.63;62.58;;;;;;;;;;5092303;28;20024;-70
2020/12/22 09:43:32;;;;;;;116.03;63.22;;;;;;;;;;5092791;28;20032;-70
2020/12/22 09:45:58;;;;;;;106.55;55.10;;;;;;;;;;5092702;28;20034;-70
2020/12/22 09:48:24;;;;;;;67.60;34.83;;;;;;;;;;5094078;28;20020;-72
2020/12/22 09:50:51;;;;;;;76.70;35.72;;;;;;;;;;5092495;28;20404;-70
2020/12/22 09:53:17;;;;;;;87.90;44.22;;;;;;;;;;5094146;28;20024;-71
2020/12/22 09:55:43;;;;;;;63.80;33.38;;;;;;;;;;5092849;28;20023;-69
2020/12/22 09:58:09;;;;;;;76.95;37.95;;;;;;;;;;5091627;28;20024;-70
2020/12/22 10:00:35;;;;;;;85.25;45.95;;;;;;;;;;5070935;28;20107;-71
2020/12/22 10:03:01;;;;;;;72.05;34.33;;;;;;;;;;5082412;28;20046;-70
2020/12/22 10:05:28;;;;;;;86.72;41.97;;;;;;;;;;5093407;28;20016;-70
2020/12/22 10:07:54;;;;;;;96.85;44.67;;;;;;;;;;5091762;28;20107;-70
2020/12/22 10:10:20;;;;;;;75.03;33.40;;;;;;;;;;5091299;28;20457;-71
2020/12/22 10:12:46;;;;;;;81.95;39.55;;;;;;;;;;5092144;28;20078;-70
2020/12/22 10:15:12;;;;;;;98.85;51.05;;;;;;;;;;5091283;28;21344;-70
2020/12/22 10:17:38;;;;;;;117.25;61.13;;;;;;;;;;5089478;28;20020;-71
2020/12/22 10:20:05;;;;;;;87.10;44.15;;;;;;;;;;5090856;28;20768;-70
2020/12/22 10:22:31;;;;;;;92.65;49.00;;;;;;;;;;5091990;28;20036;-69
2020/12/22 10:24:57;;;;;;;72.30;39.70;;;;;;;;;;5091561;28;20016;-69
2020/12/22 10:27:23;;;;;;;60.35;32.05;;;;;;;;;;5092515;28;20050;-70
2020/12/22 10:29:49;;;;;;;320.45;139.70;;;;;;;;;;5093314;28;20024;-72
2020/12/22 10:32:16;;;;;;;127.90;67.82;;;;;;;;;;5092195;28;20145;-71
2020/12/22 10:34:42;;;;;;;97.78;49.95;;;;;;;;;;5092761;28;20095;-70
2020/12/22 10:37:08;;;;;;;95.47;49.15;;;;;;;;;;5092923;28;20403;-71
2020/12/22 10:39:34;;;;;;;105.82;56.95;;;;;;;;;;5092272;28;20476;-72
2020/12/22 10:42:00;;;;;;;112.55;63.67;;;;;;;;;;5091653;28;20035;-71
2020/12/22 10:44:26;;;;;;;79.22;40.83;;;;;;;;;;5092026;28;20020;-71
2020/12/22 10:46:52;;;;;;;69.90;36.05;;;;;;;;;;5093020;28;20452;-71
2020/12/22 10:49:19;;;;;;;72.28;37.08;;;;;;;;;;5090052;28;20020;-70
2020/12/22 10:51:45;;;;;;;66.95;33.78;;;;;;;;;;5092139;28;20028;-70
2020/12/22 10:54:11;;;;;;;76.00;40.15;;;;;;;;;;5081469;28;20027;-70
2020/12/22 10:56:37;;;;;;;73.28;39.50;;;;;;;;;;5075758;28;20023;-71
2020/12/22 10:59:03;;;;;;;173.90;83.55;;;;;;;;;;5088299;28;20036;-71
2020/12/22 11:01:30;;;;;;;154.75;71.82;;;;;;;;;;5097521;28;20031;-71
2020/12/22 11:03:56;;;;;;;81.15;43.75;;;;;;;;;;5096793;28;20024;-72
2020/12/22 11:08:54;;;;;;;139.43;70.47;;;;;;;;;;5096696;28;20368;-71
2020/12/22 11:11:20;;;;;;;90.63;49.65;;;;;;;;;;5097210;28;20115;-72
2020/12/22 11:13:47;;;;;;;74.05;41.58;;;;;;;;;;5095592;28;20028;-72
2020/12/22 11:16:13;;;;;;;70.63;39.92;;;;;;;;;;5096647;28;20364;-72
2020/12/22 11:18:39;;;;;;;78.60;42.28;;;;;;;;;;5095359;28;20016;-73
2020/12/22 11:21:10;;;;;;;82.87;43.90;;;;;;;;;;5094953;28;20874;-73
2020/12/22 11:23:36;;;;;;;71.07;39.10;;;;;;;;;;5096551;28;20319;-73
2020/12/22 11:26:02;;;;;;;100.35;49.85;;;;;;;;;;5095492;28;20161;-73
2020/12/22 11:28:28;;;;;;;95.30;46.85;;;;;;;;;;5095812;28;20090;-72
2020/12/22 11:30:54;;;;;;;86.43;43.42;;;;;;;;;;5094834;28;20020;-74
2020/12/22 11:33:20;;;;;;;65.03;35.20;;;;;;;;;;5097058;28;20024;-73
2020/12/22 11:35:46;;;;;;;95.25;50.28;;;;;;;;;;5097326;28;20476;-74
2020/12/22 11:38:12;;;;;;;74.22;42.92;;;;;;;;;;5096557;28;20103;-73
2020/12/22 11:40:39;;;;;;;90.65;51.22;;;;;;;;;;5095548;28;20042;-74
2020/12/22 11:43:05;;;;;;;84.90;44.45;;;;;;;;;;5095190;28;20094;-73
2020/12/22 11:45:31;;;;;;;81.80;44.63;;;;;;;;;;5095258;28;20036;-71
2020/12/22 11:47:57;;;;;;;81.03;42.63;;;;;;;;;;5095028;28;20503;-74
2020/12/22 11:50:23;;;;;;;99.20;53.58;;;;;;;;;;5096657;28;20020;-73
2020/12/22 11:52:51;;;;;;;84.55;45.05;;;;;;;;;;5094919;28;20020;-72
2020/12/22 11:55:17;;;;;;;92.13;52.00;;;;;;;;;;5096328;28;20016;-73
2020/12/22 11:57:43;;;;;;;113.10;61.03;;;;;;;;;;5094935;28;20043;-72
2020/12/22 12:00:09;;;;;;;124.45;68.38;;;;;;;;;;5094480;28;20059;-72
2020/12/22 12:02:36;;;;;;;114.70;60.92;;;;;;;;;;5094869;28;20119;-72
2020/12/22 12:05:02;;;;;;;58.80;32.97;;;;;;;;;;5093933;28;20034;-73
2020/12/22 12:07:28;;;;;;;71.15;36.05;;;;;;;;;;5096572;28;20024;-73
2020/12/22 12:09:54;;;;;;;85.07;49.75;;;;;;;;;;5096075;28;20017;-72
2020/12/22 12:12:20;;;;;;;66.50;34.95;;;;;;;;;;5094198;28;20035;-74
2020/12/22 12:14:47;;;;;;;80.00;42.05;;;;;;;;;;5094603;28;20022;-75
2020/12/22 12:17:13;;;;;;;65.30;35.22;;;;;;;;;;5094711;28;20012;-74
2020/12/22 12:19:39;;;;;;;57.25;32.05;;;;;;;;;;5094516;28;20342;-73
2020/12/22 12:22:05;;;;;;;57.95;31.48;;;;;;;;;;5095290;28;20030;-71
2020/12/22 12:24:31;;;;;;;67.10;37.80;;;;;;;;;;5095512;28;20040;-71
2020/12/22 12:26:57;;;;;;;68.25;38.08;;;;;;;;;;5093843;28;20031;-68
2020/12/22 12:29:23;;;;;;;70.15;39.55;;;;;;;;;;5095852;28;20503;-70
2020/12/22 12:31:50;;;;;;;68.03;33.97;;;;;;;;;;5094334;28;20051;-71
2020/12/22 12:34:16;;;;;;;59.13;30.90;;;;;;;;;;5095041;28;20016;-72
2020/12/22 12:36:42;;;;;;;63.70;34.38;;;;;;;;;;5094275;28;20019;-71
2020/12/22 12:39:09;;;;;;;71.75;42.08;;;;;;;;;;5095146;28;20084;-71
2020/12/22 12:41:35;;;;;;;69.97;36.80;;;;;;;;;;5094530;28;20050;-71
2020/12/22 12:44:01;;;;;;;71.22;37.53;;;;;;;;;;5094024;28;20020;-71
2020/12/22 12:46:28;;;;;;;64.23;34.10;;;;;;;;;;5094112;28;20047;-71
2020/12/22 12:48:55;;;;;;;70.63;37.10;;;;;;;;;;5093217;28;20477;-69
2020/12/22 12:51:21;;;;;;;60.65;34.50;;;;;;;;;;5093664;28;20016;-71
2020/12/22 12:53:47;;;;;;;69.72;41.97;;;;;;;;;;5095451;28;20016;-71
2020/12/22 12:56:14;;;;;;;73.85;43.65;;;;;;;;;;5093786;28;20016;-71
2020/12/22 12:58:41;;;;;;;84.00;38.42;;;;;;;;;;5094676;28;20056;-71
2020/12/22 13:01:10;;;;;;;79.03;40.30;;;;;;;;;;5092252;28;20441;-71
2020/12/22 13:03:36;;;;;;;88.03;48.40;;;;;;;;;;5092373;28;20308;-70
2020/12/22 13:06:19;;;;;;;72.13;37.63;;;;;;;;;;5092972;28;20020;-72
2020/12/22 13:08:46;;;;;;;78.43;38.40;;;;;;;;;;5088810;28;20472;-71
2020/12/22 13:11:12;;;;;;;83.77;44.17;;;;;;;;;;5095148;28;20023;-69
2020/12/22 13:13:40;;;;;;;80.10;41.78;;;;;;;;;;5092349;28;20257;-70
2020/12/22 13:16:09;;;;;;;121.90;71.32;;;;;;;;;;5092128;28;20055;-71
2020/12/22 13:18:35;;;;;;;104.25;51.30;;;;;;;;;;5093505;28;20012;-71
2020/12/22 13:21:02;;;;;;;86.45;45.45;;;;;;;;;;5093018;28;20039;-71
2020/12/22 13:23:28;;;;;;;88.37;49.43;;;;;;;;;;5091178;28;20040;-72
2020/12/22 13:25:54;;;;;;;89.65;49.67;;;;;;;;;;5092986;28;20023;-72
2020/12/22 13:28:20;;;;;;;89.30;46.53;;;;;;;;;;5093513;28;20020;-73
2020/12/22 13:30:47;;;;;;;87.00;44.13;;;;;;;;;;5094112;28;20020;-70
2020/12/22 13:33:13;;;;;;;85.20;45.65;;;;;;;;;;5093191;28;20158;-72
2020/12/22 13:35:39;;;;;;;71.63;40.50;;;;;;;;;;5094272;28;20020;-71
2020/12/22 13:38:05;;;;;;;78.25;39.58;;;;;;;;;;5092141;28;20056;-72
2020/12/22 13:40:32;;;;;;;83.78;43.78;;;;;;;;;;5094340;28;20361;-72
2020/12/22 13:42:59;;;;;;;77.03;45.00;;;;;;;;;;5092356;28;20050;-70
2020/12/22 13:45:25;;;;;;;77.47;39.83;;;;;;;;;;5092729;28;20111;-72
2020/12/22 13:47:51;;;;;;;85.35;44.72;;;;;;;;;;5094301;28;20016;-71
2020/12/22 13:50:17;;;;;;;93.90;55.30;;;;;;;;;;5092651;28;20031;-74
2020/12/22 13:52:44;;;;;;;95.95;60.03;;;;;;;;;;5094208;28;20049;-70
2020/12/22 13:55:13;;;;;;;118.93;67.38;;;;;;;;;;5094153;28;20016;-72
2020/12/22 13:57:39;;;;;;;103.35;58.92;;;;;;;;;;5092183;28;20027;-74
2020/12/22 14:00:06;;;;;;;88.88;49.63;;;;;;;;;;5092093;28;20024;-73
2020/12/22 14:02:35;;;;;;;97.93;57.05;;;;;;;;;;5092848;28;20070;-72
2020/12/22 14:05:01;;;;;;;75.40;45.92;;;;;;;;;;5089494;28;20020;-72
2020/12/22 14:07:27;;;;;;;74.55;45.10;;;;;;;;;;5092746;28;20027;-71
2020/12/22 14:09:53;;;;;;;73.53;47.17;;;;;;;;;;5092979;28;20020;-73
2020/12/22 14:12:19;;;;;;;66.60;41.40;;;;;;;;;;5093959;28;20453;-73
2020/12/22 14:14:45;;;;;;;67.28;40.22;;;;;;;;;;5092629;28;20024;-72
2020/12/22 14:17:12;;;;;;;66.75;37.47;;;;;;;;;;5091951;28;20107;-72
2020/12/22 14:19:38;;;;;;;90.38;59.60;;;;;;;;;;5092304;28;20119;-70